地図

経路データ

SID SEASON NUMBER BASIN SUBBASIN NAME ISO_TIME NATURE LAT LON WMO_WIND WMO_PRES WMO_AGENCY TRACK_TYPE DIST2LAND LANDFALL IFLAG USA_AGENCY USA_ATCF_ID USA_LAT USA_LON USA_RECORD USA_STATUS USA_WIND USA_PRES USA_SSHS USA_R34_NE USA_R34_SE USA_R34_SW USA_R34_NW USA_R50_NE USA_R50_SE USA_R50_SW USA_R50_NW USA_R64_NE USA_R64_SE USA_R64_SW USA_R64_NW USA_POCI USA_ROCI USA_RMW USA_EYE TOKYO_LAT TOKYO_LON TOKYO_GRADE TOKYO_WIND TOKYO_PRES TOKYO_R50_DIR TOKYO_R50_LONG TOKYO_R50_SHORT TOKYO_R30_DIR TOKYO_R30_LONG TOKYO_R30_SHORT TOKYO_LAND CMA_LAT CMA_LON CMA_CAT CMA_WIND CMA_PRES HKO_LAT HKO_LON HKO_CAT HKO_WIND HKO_PRES NEWDELHI_LAT NEWDELHI_LON NEWDELHI_GRADE NEWDELHI_WIND NEWDELHI_PRES NEWDELHI_CI NEWDELHI_DP NEWDELHI_POCI REUNION_LAT REUNION_LON REUNION_TYPE REUNION_WIND REUNION_PRES REUNION_TNUM REUNION_CI REUNION_RMW REUNION_R34_NE REUNION_R34_SE REUNION_R34_SW REUNION_R34_NW REUNION_R50_NE REUNION_R50_SE REUNION_R50_SW REUNION_R50_NW REUNION_R64_NE REUNION_R64_SE REUNION_R64_SW REUNION_R64_NW BOM_LAT BOM_LON BOM_TYPE BOM_WIND BOM_PRES BOM_TNUM BOM_CI BOM_RMW BOM_R34_NE BOM_R34_SE BOM_R34_SW BOM_R34_NW BOM_R50_NE BOM_R50_SE BOM_R50_SW BOM_R50_NW BOM_R64_NE BOM_R64_SE BOM_R64_SW BOM_R64_NW BOM_ROCI BOM_POCI BOM_EYE BOM_POS_METHOD BOM_PRES_METHOD NADI_LAT NADI_LON NADI_CAT NADI_WIND NADI_PRES WELLINGTON_LAT WELLINGTON_LON WELLINGTON_WIND WELLINGTON_PRES DS824_LAT DS824_LON DS824_STAGE DS824_WIND DS824_PRES TD9636_LAT TD9636_LON TD9636_STAGE TD9636_WIND TD9636_PRES TD9635_LAT TD9635_LON TD9635_WIND TD9635_PRES TD9635_ROCI NEUMANN_LAT NEUMANN_LON NEUMANN_CLASS NEUMANN_WIND NEUMANN_PRES MLC_LAT MLC_LON MLC_CLASS MLC_WIND MLC_PRES USA_GUST BOM_GUST BOM_GUST_PER REUNION_GUST REUNION_GUST_PER USA_SEAHGT USA_SEARAD_NE USA_SEARAD_SE USA_SEARAD_SW USA_SEARAD_NW STORM_SPEED STORM_DIR
1928269N15139 1928 56 WP MM NOT_NAMED 1928-09-25 10:00:00 NR 14.5000 139.300 main 1515 1495 __________O___ -1 14.5000 139.300 7 6 301
1928269N15139 1928 56 WP MM NOT_NAMED 1928-09-25 12:00:00 NR 14.6008 139.124 main 1495 1467 __________P___ -1 14.6008 139.124 7 6 299
1928269N15139 1928 56 WP MM NOT_NAMED 1928-09-25 15:00:00 NR 14.7517 138.838 main 1467 1437 __________P___ -1 14.7517 138.838 7 7 296
1928269N15139 1928 56 WP MM NOT_NAMED 1928-09-25 18:00:00 NR 14.9019 138.498 main 1437 1397 __________P___ -1 14.9019 138.498 7 8 292
1928269N15139 1928 56 WP MM NOT_NAMED 1928-09-25 21:00:00 NR 15.0508 138.068 main 1400 1379 __________P___ -1 15.0508 138.068 7 9 289
1928269N15139 1928 56 WP MM NOT_NAMED 1928-09-25 22:00:00 NR 15.1000 137.900 main 1379 1339 __________O___ -1 15.1000 137.900 7 11 286
1928269N15139 1928 56 WP MM NOT_NAMED 1928-09-26 00:00:00 NR 15.1978 137.522 main 1339 1279 __________P___ -1 15.1978 137.522 7 12 284
1928269N15139 1928 56 WP MM NOT_NAMED 1928-09-26 03:00:00 NR 15.3442 136.872 main 1279 1213 __________P___ -1 15.3442 136.872 7 13 283
1928269N15139 1928 56 WP MM NOT_NAMED 1928-09-26 06:00:00 NR 15.4927 136.162 main 1213 1134 __________P___ -1 15.4927 136.162 7 14 282
1928269N15139 1928 56 WP MM NOT_NAMED 1928-09-26 09:00:00 NR 15.6468 135.438 main 1134 1117 __________P___ -1 15.6468 135.438 7 14 283
1928269N15139 1928 56 WP MM NOT_NAMED 1928-09-26 10:00:00 NR 15.7000 135.200 main 1117 1081 __________O___ -1 15.7000 135.200 7 13 284
1928269N15139 1928 56 WP MM NOT_NAMED 1928-09-26 12:00:00 NR 15.8075 134.774 main 1081 1020 __________P___ -1 15.8075 134.774 7 13 285
1928269N15139 1928 56 WP MM NOT_NAMED 1928-09-26 15:00:00 NR 15.9755 134.141 main 1020 966 __________P___ -1 15.9755 134.141 7 13 286
1928269N15139 1928 56 WP MM NOT_NAMED 1928-09-26 18:00:00 NR 16.1518 133.500 main 971 910 __________P___ -1 16.1518 133.500 7 13 286
1928269N15139 1928 56 WP MM NOT_NAMED 1928-09-26 21:00:00 NR 16.3366 132.832 main 910 898 __________P___ -1 16.3366 132.832 7 14 286
1928269N15139 1928 56 WP MM NOT_NAMED 1928-09-26 22:00:00 NR 16.4000 132.600 main 898 858 __________O___ -1 16.4000 132.600 7 15 285
1928269N15139 1928 56 WP MM NOT_NAMED 1928-09-27 00:00:00 NR 16.5280 132.091 main 858 802 __________P___ -1 16.5280 132.091 7 16 285
1928269N15139 1928 56 WP MM NOT_NAMED 1928-09-27 03:00:00 NR 16.7262 131.295 main 802 735 __________P___ -1 16.7262 131.295 7 16 285
1928269N15139 1928 56 WP MM NOT_NAMED 1928-09-27 06:00:00 NR 16.9287 130.497 main 735 671 __________P___ -1 16.9287 130.497 7 15 285
1928269N15139 1928 56 WP MM NOT_NAMED 1928-09-27 09:00:00 NR 17.1323 129.738 main 671 659 __________P___ -1 17.1323 129.738 7 15 286
1928269N15139 1928 56 WP MM NOT_NAMED 1928-09-27 10:00:00 NR 17.2000 129.500 main 659 631 __________O___ -1 17.2000 129.500 7 13 286
1928269N15139 1928 56 WP MM NOT_NAMED 1928-09-27 12:00:00 NR 17.3163 129.081 main 631 595 __________P___ -1 17.3163 129.081 7 12 287
1928269N15139 1928 56 WP MM NOT_NAMED 1928-09-27 15:00:00 NR 17.4913 128.502 main 595 564 __________P___ -1 17.4913 128.502 7 11 289
1928269N15139 1928 56 WP MM NOT_NAMED 1928-09-27 18:00:00 NR 17.6839 127.953 main 572 529 __________P___ -1 17.6839 127.953 7 11 292
1928269N15139 1928 56 WP MM NOT_NAMED 1928-09-27 21:00:00 NR 17.9126 127.395 main 529 510 __________P___ -1 17.9126 127.395 7 12 294
1928269N15139 1928 56 WP MM NOT_NAMED 1928-09-27 22:00:00 NR 18.0000 127.200 main 510 475 __________O___ -1 18.0000 127.200 7 13 296
1928269N15139 1928 56 WP MM NOT_NAMED 1928-09-28 00:00:00 NR 18.1989 126.773 main 475 401 __________P___ -1 18.1989 126.773 7 14 297
1928269N15139 1928 56 WP MM NOT_NAMED 1928-09-28 03:00:00 NR 18.5352 126.107 main 401 331 __________P___ -1 18.5352 126.107 7 15 299
1928269N15139 1928 56 WP MM NOT_NAMED 1928-09-28 06:00:00 NR 18.9004 125.422 main 331 271 __________P___ -1 18.9004 125.422 7 15 300
1928269N15139 1928 56 WP MM NOT_NAMED 1928-09-28 09:00:00 NR 19.2758 124.730 main 271 257 __________P___ -1 19.2758 124.730 7 15 300
1928269N15139 1928 56 WP MM NOT_NAMED 1928-09-28 10:00:00 NR 19.4000 124.500 main 257 232 __________O___ -1 19.4000 124.500 2 15 301
1928269N15139 1928 56 WP MM NOT_NAMED 1928-09-28 12:00:00 NR 19.6615 124.053 main 238 213 __________P___ -1 19.6615 124.053 2 15 302
1928269N15139 1928 56 WP MM NOT_NAMED 1928-09-28 15:00:00 NR 20.0549 123.383 main 222 212 __________P___ -1 20.0549 123.383 2 15 301
1928269N15139 1928 56 WP MM NOT_NAMED 1928-09-28 18:00:00 NR 20.4191 122.709 main 227 176 __________P___ -1 20.4191 122.709 2 14 298
1928269N15139 1928 56 WP MM NOT_NAMED 1928-09-28 21:00:00 NR 20.7198 122.029 main 176 154 __________P___ -1 20.7198 122.029 2 14 294
1928269N15139 1928 56 WP MM NOT_NAMED 1928-09-28 22:00:00 NR 20.8000 121.800 main 154 119 __________O___ -1 20.8000 121.800 2 13 288
1928269N15139 1928 56 WP MM NOT_NAMED 1928-09-29 00:00:00 NR 20.9277 121.346 main 119 89 __________P___ -1 20.9277 121.346 2 13 283
1928269N15139 1928 56 WP MM NOT_NAMED 1928-09-29 03:00:00 NR 21.0508 120.660 main 89 90 __________P___ -1 21.0508 120.660 2 13 278
1928269N15139 1928 56 WP MM NOT_NAMED 1928-09-29 06:00:00 NR 21.1057 119.962 main 115 121 __________P___ -1 21.1057 119.962 2 13 272
1928269N15139 1928 56 WP MM NOT_NAMED 1928-09-29 09:00:00 NR 21.1081 119.244 main 179 179 __________P___ -1 21.1081 119.244 2 13 270
1928269N15139 1928 56 WP MM NOT_NAMED 1928-09-29 10:00:00 NR 21.1000 119.000 main 197 197 __________O___ -1 21.1000 119.000 2 15 268
1928269N15139 1928 56 WP MM NOT_NAMED 1928-09-29 12:00:00 NR 21.0776 118.439 main 250 240 __________P___ -1 21.0776 118.439 2 16 266
1928269N15139 1928 56 WP MM NOT_NAMED 1928-09-29 15:00:00 NR 21.0055 117.578 main 240 221 __________P___ -1 21.0055 117.578 2 16 264
1928269N15139 1928 56 WP MM NOT_NAMED 1928-09-29 18:00:00 NR 20.9112 116.766 main 224 207 __________P___ -1 20.9112 116.766 2 14 263
1928269N15139 1928 56 WP MM NOT_NAMED 1928-09-29 21:00:00 NR 20.8230 116.085 main 214 212 __________P___ -1 20.8230 116.085 2 12 262
1928269N15139 1928 56 WP MM NOT_NAMED 1928-09-29 22:00:00 NR 20.8000 115.900 main 212 203 __________O___ -1 20.8000 115.900 2 8 263
1928269N15139 1928 56 WP MM NOT_NAMED 1928-09-30 00:00:00 NR 20.7759 115.644 main 203 196 __________P___ -1 20.7759 115.644 2 6 265
1928269N15139 1928 56 WP MM NOT_NAMED 1928-09-30 03:00:00 NR 20.7601 115.404 main 196 194 __________P___ -1 20.7601 115.404 2 4 268
1928269N15139 1928 56 WP MM NOT_NAMED 1928-09-30 06:00:00 NR 20.7658 115.266 main 194 187 __________P___ -1 20.7658 115.266 2 2 277
1928269N15139 1928 56 WP MM NOT_NAMED 1928-09-30 09:00:00 NR 20.7891 115.148 main 187 187 __________P___ -1 20.7891 115.148 2 2 282
1928269N15139 1928 56 WP MM NOT_NAMED 1928-09-30 10:00:00 NR 20.8000 115.100 main 187 182 __________O___ -1 20.8000 115.100 2 3 283
1928269N15139 1928 56 WP MM NOT_NAMED 1928-09-30 12:00:00 NR 20.8257 114.976 main 182 161 __________P___ -1 20.8257 114.976 2 4 282
1928269N15139 1928 56 WP MM NOT_NAMED 1928-09-30 15:00:00 NR 20.8721 114.731 main 161 156 __________P___ -1 20.8721 114.731 2 5 281
1928269N15139 1928 56 WP MM NOT_NAMED 1928-09-30 18:00:00 NR 20.9249 114.436 main 156 145 __________P___ -1 20.9249 114.436 2 6 281
1928269N15139 1928 56 WP MM NOT_NAMED 1928-09-30 21:00:00 NR 20.9811 114.111 main 146 142 __________P___ -1 20.9811 114.111 2 6 280
1928269N15139 1928 56 WP MM NOT_NAMED 1928-09-30 22:00:00 NR 21.0000 114.000 main 142 __________O___ -1 21.0000 114.000 2 6 280

デジタル台風データ・検索

IBTrACS Databaseについて

本データベースは、米国NOAAが公開する1842年以降の世界の熱帯低気圧のベストトラックデータアーカイブInternational Best Track Archive for Climate Stewardship (IBTrACS)を、ウェブで閲覧しやすい形式に変換したものです。

最終更新日:2021-10-08